createdAt,value
2023-04-20T05:00:59.774Z,63.70
2023-04-20T05:06:03.126Z,63.40
2023-04-20T05:11:06.631Z,64.20
2023-04-20T05:16:11.440Z,64.10
2023-04-20T05:21:14.809Z,64.40
2023-04-20T05:26:18.292Z,64.00
2023-04-20T05:31:23.006Z,64.70
2023-04-20T05:36:26.364Z,64.60
2023-04-20T05:41:29.837Z,64.40
2023-04-20T05:46:34.501Z,64.60
2023-04-20T05:51:39.200Z,64.90
2023-04-20T05:56:42.485Z,61.80
2023-04-20T06:01:47.235Z,61.70
2023-04-20T06:06:51.214Z,61.50
2023-04-20T06:11:54.580Z,61.20
2023-04-20T06:16:59.239Z,61.00
2023-04-20T06:22:06.376Z,60.70
2023-04-20T06:27:09.673Z,60.50
2023-04-20T06:32:14.455Z,60.50
2023-04-20T06:37:17.935Z,60.20
2023-04-20T06:42:21.270Z,60.00
2023-04-20T06:47:31.451Z,60.00
2023-04-20T06:52:34.853Z,59.90
2023-04-20T06:57:38.678Z,59.80
2023-04-20T07:02:47.569Z,59.60
2023-04-20T07:07:51.376Z,59.30
2023-04-20T07:12:55.061Z,59.20
2023-04-20T07:18:00.346Z,59.10
2023-04-20T07:23:03.733Z,58.90
2023-04-20T07:28:07.067Z,58.70
2023-04-20T07:33:11.977Z,58.50
2023-04-20T07:38:16.638Z,58.20
2023-04-20T07:43:20.030Z,58.10
2023-04-20T07:48:24.680Z,58.00
2023-04-20T07:53:28.105Z,57.80
2023-04-20T07:58:31.411Z,57.60
2023-04-20T08:03:36.670Z,57.40
2023-04-20T08:08:40.314Z,57.00
2023-04-20T08:13:43.625Z,56.70
2023-04-20T08:18:48.352Z,56.60
2023-04-20T08:23:51.868Z,56.20
2023-04-20T08:28:55.212Z,56.20
2023-04-20T08:34:00.313Z,55.90
2023-04-20T08:39:07.685Z,55.70
2023-04-20T08:44:11.207Z,55.50
2023-04-20T08:49:16.414Z,55.20
2023-04-20T08:54:20.038Z,54.80
2023-04-20T08:59:23.518Z,54.10
2023-04-20T09:04:28.397Z,53.20
2023-04-20T09:09:31.944Z,52.10
2023-04-20T09:14:43.695Z,51.10
2023-04-20T09:19:54.599Z,50.10
2023-04-20T09:24:57.936Z,49.40
2023-04-20T09:30:01.700Z,48.70
2023-04-20T09:35:07.683Z,48.30
2023-04-20T09:40:11.516Z,47.70
2023-04-20T09:45:16.406Z,47.50
2023-04-20T09:50:29.027Z,47.60
2023-04-20T09:55:38.798Z,46.90
2023-04-20T10:00:43.191Z,46.60
2023-04-20T10:05:47.855Z,46.10
2023-04-20T10:10:51.578Z,45.90
2023-04-20T10:15:54.950Z,45.60
2023-04-20T10:21:09.186Z,45.40
2023-04-20T10:26:12.554Z,45.10
2023-04-20T10:31:17.105Z,45.00
2023-04-20T10:36:25.564Z,44.80
2023-04-20T10:41:28.872Z,45.00
2023-04-20T10:46:32.607Z,44.30
2023-04-20T10:51:37.504Z,44.30
2023-04-20T10:56:41.905Z,44.10
2023-04-20T11:01:46.714Z,43.80
2023-04-20T11:06:51.757Z,43.70
2023-04-20T11:12:02.102Z,43.50
2023-04-20T11:17:05.938Z,43.20
2023-04-20T11:22:10.687Z,43.70
2023-04-20T11:27:20.940Z,43.00
2023-04-20T11:32:24.675Z,42.70
2023-04-20T11:37:29.898Z,42.60
2023-04-20T11:42:33.312Z,42.20
2023-04-20T11:47:36.623Z,41.70
2023-04-20T11:52:41.569Z,41.70
2023-04-20T11:57:44.967Z,41.60
2023-04-20T12:02:48.490Z,41.40
2023-04-20T12:07:53.374Z,41.00
2023-04-20T12:12:57.328Z,40.70
2023-04-20T12:18:00.804Z,40.20
2023-04-20T12:23:05.561Z,39.90
2023-04-20T12:28:08.870Z,39.50
2023-04-20T12:33:12.258Z,39.30
2023-04-20T12:38:17.031Z,39.10
2023-04-20T12:43:20.545Z,38.80
2023-04-20T12:48:23.946Z,38.60
2023-04-20T12:53:28.675Z,38.40
2023-04-20T12:58:32.060Z,38.20
2023-04-20T13:03:35.635Z,38.10
2023-04-20T13:08:40.490Z,38.10
2023-04-20T13:13:43.842Z,38.20
2023-04-20T13:18:47.207Z,38.10
2023-04-20T13:23:52.799Z,37.90
2023-04-20T13:28:58.468Z,37.90
2023-04-20T13:34:01.780Z,37.90
2023-04-20T13:39:06.520Z,37.40
2023-04-20T13:44:15.866Z,37.30
2023-04-20T13:49:22.651Z,37.10
2023-04-20T13:54:27.589Z,37.20
2023-04-20T13:59:30.988Z,37.10
2023-04-20T14:04:34.408Z,37.20
2023-04-20T14:09:39.133Z,37.00
2023-04-20T14:14:42.507Z,36.80
2023-04-20T14:19:45.933Z,37.10
2023-04-20T14:24:50.807Z,36.80
2023-04-20T14:29:54.176Z,36.50
2023-04-20T14:34:57.516Z,36.70
2023-04-20T14:40:02.191Z,36.70
2023-04-20T14:45:06.246Z,36.80
2023-04-20T14:50:10.199Z,36.90
2023-04-20T14:55:14.919Z,37.30
2023-04-20T15:00:18.839Z,37.30
2023-04-20T15:05:22.245Z,37.60
2023-04-20T15:10:27.087Z,38.20
2023-04-20T15:15:41.578Z,38.20
2023-04-20T15:20:51.943Z,38.50
2023-04-20T15:25:57.034Z,38.60
2023-04-20T15:31:00.361Z,38.70
2023-04-20T15:36:04.016Z,38.80
2023-04-20T15:41:08.869Z,38.80
2023-04-20T15:46:12.224Z,39.00
2023-04-20T15:51:15.605Z,39.10
2023-04-20T15:56:22.803Z,39.10
2023-04-20T16:01:26.268Z,39.10
2023-04-20T16:06:29.700Z,39.30
2023-04-20T16:11:35.005Z,39.40
2023-04-20T16:16:38.346Z,39.50
2023-04-20T16:21:41.898Z,39.70
2023-04-20T16:26:46.815Z,39.80
2023-04-20T16:31:50.463Z,39.90
2023-04-20T16:36:53.908Z,40.10
2023-04-20T16:41:58.701Z,40.20
2023-04-20T16:47:03.219Z,40.20
2023-04-20T16:52:06.968Z,40.20
2023-04-20T16:57:11.654Z,40.20
2023-04-20T17:02:15.465Z,40.40
2023-04-20T17:07:18.894Z,40.70
2023-04-20T17:12:23.527Z,40.90
2023-04-20T17:17:28.392Z,40.90
2023-04-20T17:22:31.981Z,41.00
2023-04-20T17:27:36.746Z,41.10
2023-04-20T17:32:40.301Z,41.30
2023-04-20T17:37:43.779Z,41.30
2023-04-20T17:42:48.519Z,41.10
2023-04-20T17:53:08.843Z,42.70
2023-04-20T17:58:18.027Z,42.70
2023-04-20T18:13:30.539Z,67.60
2023-04-20T18:18:33.862Z,68.60
2023-04-20T18:28:42.360Z,68.70
2023-04-20T18:38:51.258Z,69.50
2023-04-20T18:43:56.454Z,69.70
2023-04-20T18:48:59.836Z,70.70
2023-04-20T18:54:03.149Z,68.20
2023-04-20T18:59:09.027Z,67.40
2023-04-20T19:04:12.512Z,68.20
2023-04-20T19:14:21.132Z,69.40
2023-04-20T19:19:24.611Z,70.50
2023-04-20T19:24:28.000Z,71.30
2023-04-20T19:29:32.952Z,71.60
2023-04-20T19:34:36.258Z,71.80
2023-04-20T19:39:39.545Z,72.10
2023-04-20T19:44:44.255Z,73.40
2023-04-20T19:49:47.636Z,73.60
2023-04-20T19:54:51.093Z,73.50
2023-04-20T20:04:59.374Z,73.40
2023-04-20T20:10:03.078Z,73.50
2023-04-20T20:15:06.605Z,73.80
2023-04-20T20:25:14.997Z,74.20
2023-04-20T20:30:18.434Z,74.50
2023-04-20T20:35:22.663Z,75.20
2023-04-20T20:50:35.070Z,74.90
2023-04-20T20:55:38.520Z,74.70
2023-04-20T21:00:41.999Z,75.20
2023-04-20T21:10:50.414Z,74.40
2023-04-20T21:26:02.475Z,46.60
2023-04-20T21:31:05.945Z,46.40
2023-04-20T21:36:09.397Z,46.40
2023-04-20T21:41:14.142Z,46.50
2023-04-20T21:46:17.586Z,46.60
2023-04-20T21:51:20.974Z,46.80
2023-04-20T21:56:26.930Z,46.90
2023-04-20T22:01:30.537Z,46.90
2023-04-20T22:06:33.941Z,47.10
2023-04-20T22:11:38.746Z,47.10
2023-04-20T22:16:42.196Z,47.10
2023-04-20T22:21:45.545Z,47.20
2023-04-20T22:26:50.211Z,47.50
